Time;durP1;ratioP1;P1;durP2;ratioP2;P2;SDS_P1;SDS_P2;PMS_P1;PMS_P2;Temp;Humidity;BMP_temperature;BMP_pressure;BME280_temperature;BME280_humidity;BME280_pressure;Samples;Min_cycle;Max_cycle;Signal;HPM_P1;HPM_P2
2024/01/28 00:01:41;;;;;;;16.02;7.03;;;;;;;-0.73;57.31;103378.16;4896428;28;20054;-68
2024/01/28 00:04:09;;;;;;;12.32;5.43;;;;;;;-0.70;57.05;103374.88;4911226;28;20024;-68
2024/01/28 00:06:34;;;;;;;11.05;5.93;;;;;;;-0.88;57.50;103372.31;4913962;28;20040;-69
2024/01/28 00:09:00;;;;;;;16.55;6.05;;;;;;;-0.81;57.41;103380.38;4933877;28;20049;-69
2024/01/28 00:11:25;;;;;;;24.23;6.93;;;;;;;-1.05;57.94;103372.38;4913881;28;20039;-68
2024/01/28 00:13:51;;;;;;;14.50;5.68;;;;;;;-1.24;58.73;103372.25;4917554;28;20039;-65
2024/01/28 00:16:17;;;;;;;16.17;6.03;;;;;;;-1.26;58.64;103373.88;4913561;28;20138;-67
2024/01/28 00:18:43;;;;;;;12.50;6.28;;;;;;;-0.93;57.85;103376.34;4924643;28;20062;-71
2024/01/28 00:21:08;;;;;;;14.10;6.32;;;;;;;-1.22;58.16;103376.66;4923243;28;20075;-69
2024/01/28 00:23:34;;;;;;;19.95;6.97;;;;;;;-0.92;57.28;103365.28;4912746;28;20559;-70
2024/01/28 00:26:02;;;;;;;10.07;5.35;;;;;;;-0.86;57.27;103361.31;4921453;28;20805;-71
2024/01/28 00:28:28;;;;;;;17.45;5.88;;;;;;;-0.94;56.99;103365.19;4917609;28;20140;-71
2024/01/28 00:30:53;;;;;;;9.70;5.05;;;;;;;-0.88;57.03;103356.91;4905668;28;20039;-70
2024/01/28 00:33:19;;;;;;;18.35;6.45;;;;;;;-0.89;57.25;103360.28;4913859;28;20470;-69
2024/01/28 00:35:45;;;;;;;15.07;6.07;;;;;;;-0.79;56.62;103357.34;4920546;28;20111;-68
2024/01/28 00:38:10;;;;;;;16.70;5.85;;;;;;;-0.80;56.76;103353.00;4920017;28;20691;-68
2024/01/28 00:40:36;;;;;;;16.27;5.57;;;;;;;-0.82;56.62;103357.19;4915398;28;20121;-68
2024/01/28 00:43:05;;;;;;;13.55;6.32;;;;;;;-0.95;57.03;103354.84;4926540;28;20059;-70
2024/01/28 00:45:31;;;;;;;14.32;5.10;;;;;;;-0.88;56.59;103349.22;4915906;28;20940;-70
2024/01/28 00:47:58;;;;;;;9.15;4.93;;;;;;;-0.94;56.48;103346.34;4925167;28;20126;-70
2024/01/28 00:50:23;;;;;;;16.45;5.50;;;;;;;-1.09;57.03;103347.31;4913012;28;21010;-68
2024/01/28 00:52:49;;;;;;;10.10;5.18;;;;;;;-0.99;56.89;103349.56;4922743;28;20043;-70
2024/01/28 00:55:14;;;;;;;6.15;4.32;;;;;;;-0.96;56.50;103343.69;4920744;28;20078;-70
2024/01/28 00:57:40;;;;;;;15.98;6.28;;;;;;;-1.07;56.70;103349.97;4933486;28;20055;-70
2024/01/28 01:00:07;;;;;;;15.52;4.90;;;;;;;-1.06;57.02;103347.53;4920197;28;20054;-69
2024/01/28 01:02:32;;;;;;;15.88;5.88;;;;;;;-1.18;57.13;103352.88;4916429;28;20921;-69
2024/01/28 01:04:58;;;;;;;16.05;5.15;;;;;;;-1.17;56.83;103344.41;4921687;28;20044;-67
2024/01/28 01:07:28;;;;;;;16.45;5.30;;;;;;;-1.31;56.94;103332.56;4931424;28;20042;-70
2024/01/28 01:09:54;;;;;;;16.35;5.93;;;;;;;-1.22;56.81;103332.13;4920549;28;20099;-71
2024/01/28 01:12:20;;;;;;;13.85;4.72;;;;;;;-1.41;57.69;103336.38;4920946;28;20039;-70
2024/01/28 01:14:45;;;;;;;13.93;5.30;;;;;;;-1.28;57.30;103334.44;4922636;28;20042;-72
2024/01/28 01:17:11;;;;;;;11.40;4.75;;;;;;;-1.11;57.14;103338.66;4924678;28;20292;-69
2024/01/28 01:19:37;;;;;;;13.52;5.90;;;;;;;-1.18;56.76;103336.63;4914892;28;20032;-69
2024/01/28 01:22:03;;;;;;;14.05;4.57;;;;;;;-1.14;56.83;103338.53;4921117;28;20044;-72
2024/01/28 01:24:29;;;;;;;12.07;5.53;;;;;;;-1.15;56.97;103339.34;4948001;28;20035;-73
2024/01/28 01:26:54;;;;;;;9.00;4.97;;;;;;;-1.22;56.98;103330.47;4939282;28;20526;-73
2024/01/28 01:29:20;;;;;;;10.48;5.97;;;;;;;-1.16;56.94;103329.88;4933803;28;20043;-71
2024/01/28 01:31:45;;;;;;;9.07;4.85;;;;;;;-1.12;56.77;103336.06;4917472;28;20027;-67
2024/01/28 01:34:11;;;;;;;11.32;4.43;;;;;;;-1.25;56.64;103330.31;4920543;28;20031;-68
2024/01/28 01:36:36;;;;;;;22.85;6.25;;;;;;;-1.31;56.55;103334.25;4916011;28;20223;-68
2024/01/28 01:39:02;;;;;;;12.82;4.97;;;;;;;-1.40;57.08;103339.81;4910754;28;20055;-67
2024/01/28 01:41:27;;;;;;;18.88;5.65;;;;;;;-1.50;57.18;103333.38;4945900;28;20043;-65
2024/01/28 01:43:53;;;;;;;17.83;5.65;;;;;;;-1.51;56.78;103330.72;4921470;28;20057;-69
2024/01/28 01:46:20;;;;;;;12.25;5.70;;;;;;;-1.57;56.69;103341.56;4935605;28;20063;-67
2024/01/28 01:48:46;;;;;;;11.90;5.47;;;;;;;-1.59;56.78;103335.47;4915085;28;20651;-67
2024/01/28 01:51:12;;;;;;;12.18;6.07;;;;;;;-1.69;57.04;103331.56;4911735;28;20374;-68
2024/01/28 01:53:38;;;;;;;17.85;5.80;;;;;;;-1.70;56.67;103328.94;4912532;28;20098;-68
2024/01/28 01:56:05;;;;;;;8.10;5.60;;;;;;;-1.74;57.20;103322.75;4920058;28;20040;-67
2024/01/28 01:58:31;;;;;;;15.50;6.07;;;;;;;-1.76;57.04;103326.03;4916870;28;20031;-67
2024/01/28 02:00:58;;;;;;;14.80;5.47;;;;;;;-1.76;57.04;103316.66;4933222;28;20039;-70
2024/01/28 02:03:26;;;;;;;13.88;5.32;;;;;;;-1.78;57.48;103317.41;4928219;28;20035;-70
2024/01/28 02:05:52;;;;;;;12.90;5.47;;;;;;;-1.76;57.24;103318.34;4920592;28;20036;-71
2024/01/28 02:08:18;;;;;;;12.63;5.18;;;;;;;-1.80;57.36;103318.22;4921090;28;20117;-70
2024/01/28 02:10:45;;;;;;;18.20;6.07;;;;;;;-1.78;56.98;103314.84;4912229;28;20158;-70
2024/01/28 02:13:11;;;;;;;11.80;5.35;;;;;;;-1.84;57.27;103311.16;4920727;28;20423;-70
2024/01/28 02:15:37;;;;;;;15.93;6.05;;;;;;;-1.80;57.23;103299.34;4910363;28;20045;-72
2024/01/28 02:18:04;;;;;;;16.92;5.70;;;;;;;-1.87;57.59;103298.16;4919857;28;20039;-72
2024/01/28 02:20:31;;;;;;;11.48;4.53;;;;;;;-1.87;57.83;103294.72;4917258;28;20047;-71
2024/01/28 02:22:57;;;;;;;13.32;4.93;;;;;;;-1.88;57.30;103288.75;4922760;28;20094;-73
2024/01/28 02:25:22;;;;;;;14.05;5.32;;;;;;;-1.88;57.44;103291.31;4928125;28;20051;-71
2024/01/28 02:27:48;;;;;;;10.50;5.20;;;;;;;-1.84;57.62;103274.41;4926327;28;20049;-71
2024/01/28 02:30:14;;;;;;;14.65;5.03;;;;;;;-1.84;57.55;103267.59;4923967;28;20709;-71
2024/01/28 02:32:51;;;;;;;10.52;5.13;;;;;;;-1.84;57.62;103272.72;4913438;28;20027;-71
2024/01/28 02:35:18;;;;;;;22.33;5.40;;;;;;;-1.84;57.55;103270.16;4921436;28;20157;-71
2024/01/28 02:37:43;;;;;;;17.95;5.68;;;;;;;-1.89;57.24;103270.69;4907657;28;20110;-71
2024/01/28 02:40:09;;;;;;;9.02;5.25;;;;;;;-1.87;57.24;103264.84;4931440;28;20052;-71
2024/01/28 02:42:35;;;;;;;11.75;4.88;;;;;;;-1.88;57.42;103263.09;4913921;28;20046;-71
2024/01/28 02:45:00;;;;;;;9.65;4.43;;;;;;;-1.86;57.23;103255.50;4935442;28;20043;-70
2024/01/28 02:47:26;;;;;;;12.30;4.45;;;;;;;-1.85;57.05;103252.97;4934098;28;20032;-70
2024/01/28 02:49:52;;;;;;;20.20;5.60;;;;;;;-1.82;56.76;103253.16;4909391;28;20556;-69
2024/01/28 02:52:17;;;;;;;10.38;4.57;;;;;;;-1.82;56.49;103240.34;4915007;28;20039;-70
2024/01/28 02:54:43;;;;;;;8.48;4.05;;;;;;;-2.00;56.81;103252.22;4923855;28;20058;-70
2024/01/28 02:57:08;;;;;;;16.42;5.82;;;;;;;-2.03;57.12;103249.50;4932458;28;20047;-69
2024/01/28 02:59:34;;;;;;;15.32;5.13;;;;;;;-2.05;57.35;103238.31;4910360;28;20031;-69
2024/01/28 03:01:59;;;;;;;10.95;5.38;;;;;;;-2.03;57.49;103235.00;4917002;28;20106;-68
2024/01/28 03:04:25;;;;;;;18.05;5.63;;;;;;;-1.98;57.27;103237.81;4915039;28;20667;-67
2024/01/28 03:06:51;;;;;;;10.95;4.68;;;;;;;-1.98;57.49;103237.81;4913308;28;20023;-68
2024/01/28 03:09:18;;;;;;;9.63;5.65;;;;;;;-1.94;57.56;103232.03;4918097;28;20047;-69
2024/01/28 03:11:44;;;;;;;9.93;5.60;;;;;;;-1.93;57.15;103238.03;4941090;28;20046;-67
2024/01/28 03:14:10;;;;;;;12.68;5.57;;;;;;;-1.93;57.12;103233.81;4933656;28;20030;-69
2024/01/28 03:16:36;;;;;;;11.80;4.95;;;;;;;-1.86;56.63;103235.84;4912935;28;20043;-66
2024/01/28 03:19:02;;;;;;;11.48;5.25;;;;;;;-1.97;56.66;103237.00;4919927;28;20120;-66
2024/01/28 03:21:28;;;;;;;15.27;6.95;;;;;;;-2.06;57.09;103236.56;4919688;28;20046;-68
2024/01/28 03:23:53;;;;;;;15.38;6.78;;;;;;;-2.07;57.16;103227.09;4915198;28;20042;-66
2024/01/28 03:26:19;;;;;;;14.20;6.00;;;;;;;-2.08;57.38;103223.66;4919181;28;20094;-68
2024/01/28 03:28:45;;;;;;;15.73;6.40;;;;;;;-2.03;56.96;103218.75;4914292;28;20039;-68
2024/01/28 03:31:11;;;;;;;16.20;5.35;;;;;;;-2.07;56.83;103220.31;4932710;28;20464;-68
2024/01/28 03:33:36;;;;;;;11.38;6.15;;;;;;;-2.12;57.08;103220.88;4920427;28;20089;-68
2024/01/28 03:36:02;;;;;;;16.23;6.22;;;;;;;-2.14;56.92;103212.22;4917150;28;20090;-67
2024/01/28 03:38:28;;;;;;;10.15;5.30;;;;;;;-2.08;56.73;103220.22;4918447;28;20027;-67
2024/01/28 03:40:53;;;;;;;17.45;6.22;;;;;;;-2.16;57.30;103213.81;4895417;28;20131;-68
2024/01/28 03:43:18;;;;;;;13.55;5.85;;;;;;;-2.19;57.32;103209.44;4902049;28;20071;-68
2024/01/28 03:45:44;;;;;;;16.55;6.47;;;;;;;-2.16;57.41;103211.25;4898854;28;20513;-71
2024/01/28 03:48:10;;;;;;;13.27;6.00;;;;;;;-2.12;57.09;103208.06;4909549;28;20027;-71
2024/01/28 03:50:36;;;;;;;20.42;6.30;;;;;;;-2.10;56.84;103203.88;4918642;28;20042;-71
2024/01/28 03:53:01;;;;;;;14.23;6.20;;;;;;;-2.16;57.64;103198.44;4919861;28;20042;-71
2024/01/28 03:55:27;;;;;;;17.25;7.32;;;;;;;-2.11;57.37;103192.75;4923709;28;20517;-71
2024/01/28 03:57:52;;;;;;;18.20;6.82;;;;;;;-2.03;57.38;103194.00;4929487;28;20081;-71
2024/01/28 04:00:28;;;;;;;20.60;6.93;;;;;;;-1.98;57.37;103191.66;4920128;28;20172;-70
2024/01/28 04:02:53;;;;;;;10.18;5.88;;;;;;;-1.90;57.25;103195.50;4911427;28;20459;-70
2024/01/28 04:05:19;;;;;;;11.63;5.80;;;;;;;-1.81;56.73;103190.81;4918973;28;20040;-71
2024/01/28 04:07:44;;;;;;;23.40;8.02;;;;;;;-1.92;57.01;103188.53;4913964;28;20087;-66
2024/01/28 04:10:14;;;;;;;12.63;6.95;;;;;;;-1.97;56.68;103184.88;4924331;28;20043;-69
2024/01/28 04:12:40;;;;;;;17.23;6.65;;;;;;;-1.99;57.05;103196.72;4932429;28;20175;-69
2024/01/28 04:15:06;;;;;;;19.85;7.50;;;;;;;-1.99;57.11;103192.47;4917717;28;20051;-70
2024/01/28 04:17:31;;;;;;;18.52;6.20;;;;;;;-1.99;57.25;103187.34;4923941;28;20622;-69
2024/01/28 04:19:57;;;;;;;15.00;6.97;;;;;;;-1.95;57.22;103188.41;4917241;28;20047;-70
2024/01/28 04:22:22;;;;;;;18.27;7.85;;;;;;;-1.94;57.06;103196.13;4922857;28;20054;-70
2024/01/28 04:24:48;;;;;;;12.77;6.97;;;;;;;-1.95;57.15;103194.41;4915730;28;21038;-70
2024/01/28 04:27:13;;;;;;;18.05;6.95;;;;;;;-1.85;57.15;103198.28;4923657;28;20044;-70
2024/01/28 04:29:41;;;;;;;14.50;7.20;;;;;;;-1.82;56.39;103199.31;4921701;28;20032;-70
2024/01/28 04:32:09;;;;;;;12.75;6.15;;;;;;;-1.81;56.42;103189.94;4916147;28;20676;-70
2024/01/28 04:34:35;;;;;;;11.63;5.60;;;;;;;-1.83;56.20;103188.97;4925378;28;22245;-70
2024/01/28 04:37:01;;;;;;;11.93;5.85;;;;;;;-1.89;56.25;103192.16;4917627;28;20126;-70
2024/01/28 04:39:27;;;;;;;16.95;6.25;;;;;;;-1.96;56.24;103195.19;4921389;28;20038;-70
2024/01/28 04:41:52;;;;;;;13.20;5.70;;;;;;;-1.93;56.21;103197.91;4916838;28;20090;-70
2024/01/28 04:44:20;;;;;;;10.35;5.72;;;;;;;-1.88;56.14;103201.56;4921925;28;20064;-70
2024/01/28 04:46:46;;;;;;;21.88;6.32;;;;;;;-1.89;56.11;103194.72;4923205;28;20098;-70
2024/01/28 04:49:11;;;;;;;15.43;6.50;;;;;;;-2.03;56.22;103203.38;4902559;28;20585;-70
2024/01/28 04:51:37;;;;;;;15.73;6.95;;;;;;;-1.99;56.31;103192.47;4922273;28;20163;-70
2024/01/28 04:54:02;;;;;;;15.90;6.35;;;;;;;-2.06;56.41;103200.69;4916963;28;20426;-70
2024/01/28 04:56:28;;;;;;;20.10;6.45;;;;;;;-2.11;56.30;103194.41;4920874;28;20586;-71
2024/01/28 04:58:53;;;;;;;17.55;7.32;;;;;;;-2.15;56.63;103200.22;4924243;28;20069;-70
2024/01/28 05:01:19;;;;;;;17.52;7.75;;;;;;;-2.21;56.99;103195.66;4920701;28;20693;-72
2024/01/28 05:03:44;;;;;;;14.73;6.38;;;;;;;-2.22;57.18;103199.91;4924400;28;20043;-70
2024/01/28 05:06:10;;;;;;;13.40;6.10;;;;;;;-2.22;56.85;103189.66;4917744;28;20059;-70
2024/01/28 05:08:35;;;;;;;16.58;6.38;;;;;;;-2.24;57.43;103178.44;4924699;28;20036;-70
2024/01/28 05:11:01;;;;;;;23.83;7.90;;;;;;;-2.23;57.36;103172.50;4915259;28;20885;-70
2024/01/28 05:13:27;;;;;;;19.67;6.97;;;;;;;-2.19;57.29;103167.56;4923314;28;20035;-65
2024/01/28 05:15:52;;;;;;;19.98;7.35;;;;;;;-2.17;57.38;103171.06;4927764;28;20052;-70
2024/01/28 05:18:19;;;;;;;17.10;6.82;;;;;;;-2.15;57.64;103164.34;4921260;28;20039;-69
2024/01/28 05:20:45;;;;;;;19.55;8.07;;;;;;;-2.09;57.72;103173.22;4903986;29;20042;-69
2024/01/28 05:23:10;;;;;;;17.30;7.22;;;;;;;-1.88;57.25;103167.38;4904393;28;21185;-67
2024/01/28 05:25:36;;;;;;;18.33;8.23;;;;;;;-1.84;57.15;103161.59;4933343;28;20439;-68
2024/01/28 05:28:02;;;;;;;17.80;7.38;;;;;;;-1.86;57.23;103158.09;4917593;28;20134;-71
2024/01/28 05:30:29;;;;;;;11.07;7.10;;;;;;;-1.81;57.43;103154.03;4926494;28;20589;-71
2024/01/28 05:32:55;;;;;;;21.23;8.75;;;;;;;-1.76;57.12;103151.69;4940204;28;21061;-69
2024/01/28 05:35:20;;;;;;;17.13;6.43;;;;;;;-1.74;57.21;103153.53;4922389;28;20099;-65
2024/01/28 05:37:46;;;;;;;30.77;8.10;;;;;;;-1.73;56.99;103149.28;4939167;28;20164;-71
2024/01/28 05:40:12;;;;;;;15.70;7.53;;;;;;;-1.67;57.07;103144.44;4921963;28;21559;-72
2024/01/28 05:42:37;;;;;;;18.42;6.85;;;;;;;-1.65;56.83;103143.69;4921404;28;20086;-72
2024/01/28 05:45:03;;;;;;;22.30;7.68;;;;;;;-1.65;56.76;103138.56;4921622;28;20055;-71
2024/01/28 05:47:29;;;;;;;12.13;6.47;;;;;;;-1.61;56.78;103144.75;4922512;28;20030;-71
2024/01/28 05:49:55;;;;;;;14.52;6.82;;;;;;;-1.61;56.44;103145.59;4922574;28;20477;-70
2024/01/28 05:52:20;;;;;;;16.08;6.90;;;;;;;-1.61;56.48;103142.16;4909552;28;20035;-70
2024/01/28 05:54:46;;;;;;;12.70;7.05;;;;;;;-1.67;56.36;103136.75;4934963;28;20044;-70
2024/01/28 05:57:12;;;;;;;23.13;8.07;;;;;;;-1.63;56.60;103131.84;4915939;28;20200;-71
2024/01/28 05:59:38;;;;;;;15.18;7.97;;;;;;;-1.57;56.51;103123.56;4920032;28;20672;-72
2024/01/28 06:02:04;;;;;;;12.30;7.13;;;;;;;-1.52;56.10;103124.66;4931866;28;20035;-71
2024/01/28 06:04:30;;;;;;;17.33;7.45;;;;;;;-1.54;56.25;103123.69;4921291;28;20035;-72
2024/01/28 06:06:55;;;;;;;18.80;7.45;;;;;;;-1.55;56.05;103119.38;4925779;28;20081;-70
2024/01/28 06:09:21;;;;;;;22.58;7.68;;;;;;;-1.50;56.04;103112.78;4946931;28;20151;-71
2024/01/28 06:11:46;;;;;;;22.33;6.93;;;;;;;-1.42;56.02;103121.72;4932412;28;20415;-70
2024/01/28 06:14:12;;;;;;;19.35;6.93;;;;;;;-1.46;55.95;103124.94;4907208;28;20085;-70
2024/01/28 06:16:38;;;;;;;17.63;7.43;;;;;;;-1.36;55.73;103110.84;4910882;28;20031;-68
2024/01/28 06:19:04;;;;;;;18.50;6.90;;;;;;;-1.31;55.77;103113.59;4903630;28;20454;-68
2024/01/28 06:21:29;;;;;;;17.65;6.35;;;;;;;-1.27;55.18;103115.50;4896530;28;20078;-66
2024/01/28 06:23:55;;;;;;;12.45;7.28;;;;;;;-1.30;55.25;103108.56;4929631;28;20043;-68
2024/01/28 06:26:21;;;;;;;16.65;6.57;;;;;;;-1.35;55.33;103114.28;4892938;28;20059;-67
2024/01/28 06:28:47;;;;;;;17.95;7.40;;;;;;;-1.39;55.24;103115.84;4899293;28;20035;-70
2024/01/28 06:31:14;;;;;;;10.32;5.70;;;;;;;-1.44;55.35;103110.50;4890358;28;20043;-70
2024/01/28 06:33:40;;;;;;;11.27;6.60;;;;;;;-1.41;55.07;103108.06;4921840;28;20024;-72
2024/01/28 06:36:06;;;;;;;29.17;5.97;;;;;;;-1.52;55.21;103114.38;4920002;28;20044;-72
2024/01/28 06:38:32;;;;;;;20.25;6.30;;;;;;;-1.52;54.82;103109.25;4923296;28;20111;-72
2024/01/28 06:40:58;;;;;;;14.38;6.45;;;;;;;-1.71;55.12;103109.19;4919312;28;20117;-68
2024/01/28 06:43:25;;;;;;;10.18;5.93;;;;;;;-1.77;55.25;103108.94;4915054;28;20170;-69
2024/01/28 06:45:51;;;;;;;12.65;6.07;;;;;;;-1.82;55.49;103111.28;4920267;28;20043;-68
2024/01/28 06:48:17;;;;;;;15.93;6.03;;;;;;;-1.84;55.74;103116.34;4917430;28;20039;-68
2024/01/28 06:50:42;;;;;;;11.38;6.10;;;;;;;-1.87;55.39;103105.91;4920086;28;20458;-68
2024/01/28 06:53:08;;;;;;;14.60;6.22;;;;;;;-1.93;55.66;103103.06;4910396;28;20159;-68
2024/01/28 06:55:33;;;;;;;16.38;7.13;;;;;;;-1.96;55.84;103102.91;4912077;28;20071;-69
2024/01/28 06:58:00;;;;;;;10.20;5.80;;;;;;;-1.88;55.86;103101.59;4920875;28;20095;-70
2024/01/28 07:00:26;;;;;;;13.80;6.18;;;;;;;-1.77;55.18;103107.25;4921817;28;20050;-70
2024/01/28 07:02:53;;;;;;;18.23;6.00;;;;;;;-1.81;55.06;103111.34;4919532;28;20035;-69
2024/01/28 07:05:19;;;;;;;9.93;6.35;;;;;;;-1.89;55.05;103106.66;4912560;28;20043;-70
2024/01/28 07:07:45;;;;;;;15.73;5.72;;;;;;;-1.98;55.39;103113.91;4929125;28;20043;-70
2024/01/28 07:10:10;;;;;;;14.82;6.13;;;;;;;-2.02;55.61;103111.19;4919760;28;20116;-70
2024/01/28 07:12:37;;;;;;;8.35;6.25;;;;;;;-2.12;55.59;103108.13;4921719;28;20081;-73
2024/01/28 07:15:02;;;;;;;12.93;5.10;;;;;;;-2.12;56.04;103113.25;4935575;28;20653;-73
2024/01/28 07:17:28;;;;;;;12.07;5.30;;;;;;;-2.06;55.58;103113.53;4913948;28;20095;-71
2024/01/28 07:19:54;;;;;;;9.98;5.20;;;;;;;-2.04;55.50;103115.38;4920100;28;20125;-71
2024/01/28 07:22:19;;;;;;;12.82;6.30;;;;;;;-2.04;55.42;103111.94;4932804;28;20043;-70
2024/01/28 07:24:45;;;;;;;11.25;5.90;;;;;;;-1.99;55.14;103110.47;4939293;28;20072;-70
2024/01/28 07:27:10;;;;;;;12.18;4.97;;;;;;;-1.99;55.03;103107.91;4914042;28;20031;-70
2024/01/28 07:29:36;;;;;;;10.80;5.30;;;;;;;-1.99;55.71;103107.91;4918196;28;20274;-69
2024/01/28 07:32:01;;;;;;;10.65;5.75;;;;;;;-1.97;55.54;103106.28;4935450;28;20142;-70
2024/01/28 07:34:27;;;;;;;13.48;5.88;;;;;;;-1.96;55.58;103110.59;4911816;28;20066;-70
2024/01/28 07:36:54;;;;;;;15.95;6.32;;;;;;;-2.07;55.40;103106.66;4925214;28;20035;-69
2024/01/28 07:39:20;;;;;;;12.65;6.05;;;;;;;-2.14;55.51;103104.59;4913834;28;20035;-70
2024/01/28 07:41:46;;;;;;;10.13;5.55;;;;;;;-2.10;55.90;103103.94;4920736;28;20518;-70
2024/01/28 07:44:12;;;;;;;9.65;5.70;;;;;;;-1.91;55.79;103108.25;4922759;28;20242;-70
2024/01/28 07:46:37;;;;;;;16.67;5.55;;;;;;;-1.81;55.78;103111.34;4910291;28;20039;-70
2024/01/28 07:49:03;;;;;;;12.80;6.30;;;;;;;-1.64;55.56;103106.13;4909433;28;20042;-69
2024/01/28 07:51:29;;;;;;;13.73;5.03;;;;;;;-1.65;55.08;103094.97;4899038;28;21601;-70
2024/01/28 07:53:55;;;;;;;13.50;6.47;;;;;;;-1.61;55.01;103103.72;4912374;28;20039;-70
2024/01/28 07:56:20;;;;;;;16.63;6.07;;;;;;;-1.46;55.16;103089.03;4907284;28;20457;-71
2024/01/28 07:58:49;;;;;;;12.10;5.50;;;;;;;-1.38;54.71;103097.06;4912462;28;20035;-70
2024/01/28 08:01:15;;;;;;;12.85;6.13;;;;;;;-1.38;54.40;103085.09;4918362;28;20048;-70
2024/01/28 08:03:40;;;;;;;9.35;5.13;;;;;;;-1.33;54.17;103087.00;4910571;28;20051;-72
2024/01/28 08:06:07;;;;;;;14.48;5.28;;;;;;;-1.26;53.94;103091.63;4917532;28;20157;-71
2024/01/28 08:08:33;;;;;;;15.40;5.75;;;;;;;-1.10;54.21;103094.03;4892831;28;21010;-71
2024/01/28 08:10:59;;;;;;;12.60;5.47;;;;;;;-0.93;53.88;103088.78;4898882;28;20039;-72
2024/01/28 08:13:24;;;;;;;22.40;6.75;;;;;;;-0.85;53.00;103079.75;4901332;28;20090;-71
2024/01/28 08:15:51;;;;;;;15.13;4.82;;;;;;;-0.76;52.79;103077.56;4905291;28;22946;-74
2024/01/28 08:18:17;;;;;;;12.43;4.32;;;;;;;-0.60;52.43;103084.22;4897212;28;20032;-73
2024/01/28 08:20:42;;;;;;;11.57;5.05;;;;;;;-0.46;51.98;103079.66;4915989;28;20399;-75
2024/01/28 08:23:08;;;;;;;11.80;5.00;;;;;;;-0.29;51.69;103082.91;4922167;28;20141;-77
2024/01/28 08:25:33;;;;;;;8.43;4.38;;;;;;;0.20;52.20;103085.75;4909675;28;20083;-72
2024/01/28 08:27:59;;;;;;;12.30;4.85;;;;;;;0.90;50.26;103084.94;4935204;28;20055;-72
2024/01/28 08:30:25;;;;;;;5.50;3.88;;;;;;;1.60;47.31;103082.16;4926938;28;20062;-68
2024/01/28 08:32:50;;;;;;;15.32;4.55;;;;;;;2.53;45.84;103084.16;4915313;28;20034;-66
2024/01/28 08:35:17;;;;;;;7.88;4.18;;;;;;;3.57;44.26;103068.03;4913531;28;20039;-66
2024/01/28 08:37:42;;;;;;;11.23;5.03;;;;;;;4.00;41.32;103069.91;4917865;28;20035;-66
2024/01/28 08:40:08;;;;;;;15.73;4.95;;;;;;;3.68;42.28;103065.72;4917757;28;20432;-68
2024/01/28 08:42:34;;;;;;;11.02;4.10;;;;;;;3.44;42.13;103084.94;4909541;28;20743;-67
2024/01/28 08:45:00;;;;;;;8.82;3.92;;;;;;;3.63;42.63;103077.63;4917623;28;20051;-68
2024/01/28 08:47:25;;;;;;;7.78;3.47;;;;;;;3.83;42.21;103076.41;4914760;28;20052;-67
2024/01/28 08:49:51;;;;;;;6.93;4.68;;;;;;;4.06;41.11;103066.59;4918731;28;20491;-68
2024/01/28 08:52:17;;;;;;;10.82;4.57;;;;;;;4.29;40.86;103067.06;4930030;28;20044;-66
2024/01/28 08:54:46;;;;;;;9.75;3.50;;;;;;;4.22;41.13;103063.47;4918486;28;20658;-66
2024/01/28 08:57:12;;;;;;;6.97;4.25;;;;;;;4.46;40.63;103064.84;4917584;28;20079;-66
2024/01/28 08:59:38;;;;;;;6.22;3.63;;;;;;;4.49;40.00;103064.91;4912828;28;21061;-67
2024/01/28 09:02:03;;;;;;;14.77;4.63;;;;;;;4.93;39.89;103061.50;4921920;28;20063;-66
2024/01/28 09:04:29;;;;;;;12.45;3.58;;;;;;;5.24;38.78;103063.78;4919279;28;20035;-67
2024/01/28 09:06:55;;;;;;;10.82;3.95;;;;;;;5.48;37.67;103067.66;4922266;28;20482;-66
2024/01/28 09:09:20;;;;;;;10.18;3.63;;;;;;;5.38;38.34;103063.16;4915754;28;20046;-66
2024/01/28 09:11:46;;;;;;;10.70;4.72;;;;;;;5.47;37.92;103063.28;4923902;28;20506;-67
2024/01/28 09:14:11;;;;;;;8.38;4.25;;;;;;;5.20;37.75;103061.97;4920920;28;20056;-66
2024/01/28 09:16:37;;;;;;;10.50;4.40;;;;;;;4.78;37.92;103060.31;4915738;28;20198;-67
2024/01/28 09:19:04;;;;;;;14.60;4.45;;;;;;;4.19;39.65;103054.81;4923210;28;20042;-68
2024/01/28 09:21:30;;;;;;;10.63;4.05;;;;;;;4.14;40.56;103043.44;4916708;28;20506;-67
2024/01/28 09:23:57;;;;;;;9.55;3.97;;;;;;;4.01;40.30;103043.19;4922629;28;20175;-67
2024/01/28 09:26:23;;;;;;;7.13;4.32;;;;;;;3.98;40.81;103040.56;4914187;28;20039;-67
2024/01/28 09:28:48;;;;;;;10.27;4.07;;;;;;;3.84;40.45;103047.13;4922168;28;20027;-67
2024/01/28 09:31:14;;;;;;;7.60;4.22;;;;;;;3.82;40.05;103050.50;4911179;28;20748;-66
2024/01/28 09:33:40;;;;;;;6.03;2.85;;;;;;;3.53;40.76;103048.97;4892528;28;20691;-67
2024/01/28 09:36:06;;;;;;;9.13;3.53;;;;;;;3.98;40.56;103043.13;4905960;28;20032;-66
2024/01/28 09:38:31;;;;;;;9.25;3.85;;;;;;;4.17;39.87;103043.53;4906808;28;20518;-65
2024/01/28 09:41:10;;;;;;;7.90;4.50;;;;;;;4.35;39.54;103048.22;4893676;28;20047;-67
2024/01/28 09:43:39;;;;;;;7.97;3.55;;;;;;;4.39;38.84;103045.72;4906136;28;20078;-66
2024/01/28 09:46:06;;;;;;;9.35;3.50;;;;;;;4.45;39.88;103046.69;4922659;28;20724;-68
2024/01/28 09:48:32;;;;;;;7.38;3.40;;;;;;;4.58;38.77;103039.19;4916693;28;20039;-68
2024/01/28 09:50:58;;;;;;;9.68;2.92;;;;;;;4.59;38.50;103032.31;4918836;28;20071;-67
2024/01/28 09:53:23;;;;;;;7.90;2.88;;;;;;;4.58;38.16;103038.31;4919486;28;20418;-68
2024/01/28 09:55:49;;;;;;;6.50;3.83;;;;;;;4.39;39.26;103032.78;4932852;28;20067;-66
2024/01/28 09:58:15;;;;;;;10.27;3.92;;;;;;;4.61;38.73;103038.41;4920675;28;20274;-68
2024/01/28 10:00:41;;;;;;;7.53;3.30;;;;;;;4.41;38.46;103036.28;4912171;28;20095;-68
2024/01/28 10:03:07;;;;;;;7.47;2.78;;;;;;;4.24;39.25;103034.19;4916705;28;20384;-67
2024/01/28 10:05:32;;;;;;;4.85;3.13;;;;;;;4.31;39.34;103026.56;4901967;28;20189;-67
2024/01/28 10:08:03;;;;;;;12.00;3.78;;;;;;;4.71;38.49;103021.31;4919759;28;20063;-67
2024/01/28 10:10:32;;;;;;;7.97;2.85;;;;;;;4.92;37.84;103019.16;4915255;28;20040;-66
2024/01/28 10:12:57;;;;;;;6.22;3.20;;;;;;;5.30;38.07;103025.81;4935434;28;20097;-67
2024/01/28 10:15:26;;;;;;;7.57;2.28;;;;;;;5.70;36.75;103021.28;4917125;28;20047;-68
2024/01/28 10:17:52;;;;;;;7.50;2.85;;;;;;;5.66;36.46;103018.66;4933517;28;20543;-68
2024/01/28 10:20:20;;;;;;;8.45;2.70;;;;;;;5.31;36.80;103022.41;4917904;28;20121;-67
2024/01/28 10:22:46;;;;;;;6.90;2.55;;;;;;;5.26;36.84;102999.00;4913416;28;20039;-67
2024/01/28 10:25:15;;;;;;;7.40;2.97;;;;;;;5.02;37.00;103009.81;4917200;28;20058;-67
2024/01/28 10:27:44;;;;;;;6.88;2.80;;;;;;;5.23;37.22;103012.78;4913820;28;20456;-67
2024/01/28 10:30:11;;;;;;;11.90;2.38;;;;;;;5.17;36.69;103002.31;4915298;28;20156;-66
2024/01/28 10:32:39;;;;;;;6.28;1.88;;;;;;;5.53;36.57;102993.38;4912623;28;20035;-67
2024/01/28 10:35:09;;;;;;;8.98;2.40;;;;;;;5.81;36.90;102993.75;4916816;28;20047;-67
2024/01/28 10:37:35;;;;;;;4.70;2.22;;;;;;;6.16;35.62;102985.56;4912980;28;20664;-67
2024/01/28 10:40:05;;;;;;;4.90;2.13;;;;;;;5.77;35.31;102989.38;4916605;28;20043;-67
2024/01/28 10:42:36;;;;;;;4.38;1.83;;;;;;;5.83;36.12;102992.06;4912699;28;20061;-68
2024/01/28 10:45:08;;;;;;;8.15;2.30;;;;;;;5.46;35.66;102983.75;4916852;28;20039;-68
2024/01/28 10:47:36;;;;;;;8.68;1.85;;;;;;;5.96;35.33;102987.91;4911153;28;20020;-66
2024/01/28 10:50:05;;;;;;;10.20;2.28;;;;;;;5.84;35.25;102988.63;4915999;28;20035;-67
2024/01/28 10:52:33;;;;;;;5.53;2.22;;;;;;;5.87;35.21;102988.66;4901174;28;23617;-67
2024/01/28 10:54:59;;;;;;;12.02;2.30;;;;;;;6.00;35.43;102987.97;4891794;28;20150;-66
2024/01/28 10:57:26;;;;;;;3.78;2.28;;;;;;;5.63;35.11;102977.06;4905767;28;20151;-67
2024/01/28 10:59:53;;;;;;;3.15;2.35;;;;;;;5.57;35.80;102973.50;4883965;28;20051;-67
2024/01/28 11:02:20;;;;;;;6.88;2.83;;;;;;;5.73;35.79;102979.81;4897813;28;20045;-67
2024/01/28 11:04:47;;;;;;;5.28;4.28;;;;;;;5.79;35.88;102972.09;4905005;28;20047;-66
2024/01/28 11:07:16;;;;;;;8.63;2.38;;;;;;;5.77;34.70;102973.78;4917620;28;20039;-65
2024/01/28 11:09:42;;;;;;;4.75;1.38;;;;;;;5.73;35.49;102972.91;4911768;28;20046;-67
2024/01/28 11:12:09;;;;;;;4.47;1.83;;;;;;;5.50;34.24;102967.34;4915903;28;20062;-68
2024/01/28 11:14:34;;;;;;;3.50;1.38;;;;;;;6.18;34.63;102969.16;4911721;28;20031;-66
2024/01/28 11:17:00;;;;;;;4.28;1.27;;;;;;;6.42;33.86;102967.72;4917338;28;20046;-67